Time;durP1;ratioP1;P1;durP2;ratioP2;P2;SDS_P1;SDS_P2;PMS_P1;PMS_P2;Temp;Humidity;BMP_temperature;BMP_pressure;BME280_temperature;BME280_humidity;BME280_pressure;Samples;Min_cycle;Max_cycle;Signal;HPM_P1;HPM_P2
2023/07/09 00:04:40;;;;;;;6.72;4.93;;;;;;;20.61;100.00;101753.13;10421310;28;20037;-67
2023/07/09 00:09:40;;;;;;;6.65;4.97;;;;;;;19.84;100.00;101647.81;10420835;28;20040;-67
2023/07/09 00:14:41;;;;;;;10.70;5.72;;;;;;;20.36;100.00;101748.63;10454415;28;20086;-67
2023/07/09 00:19:44;;;;;;;13.18;6.38;;;;;;;20.26;100.00;101744.03;10436540;28;20047;-68
2023/07/09 00:24:47;;;;;;;12.70;6.22;;;;;;;20.15;100.00;101748.91;10454583;28;20041;-68
2023/07/09 00:29:48;;;;;;;9.20;5.18;;;;;;;20.05;100.00;101754.63;10463217;28;20028;-67
2023/07/09 00:34:48;;;;;;;8.25;6.03;;;;;;;19.95;100.00;101752.78;10445537;28;20481;-67
2023/07/09 00:39:49;;;;;;;11.57;6.55;;;;;;;19.83;100.00;101743.13;10463218;28;20732;-67
2023/07/09 00:44:54;;;;;;;10.48;6.32;;;;;;;19.71;100.00;101741.56;10462246;28;20041;-68
2023/07/09 00:50:33;;;;;;;13.32;6.47;;;;;;;19.66;100.00;101740.78;10411819;28;20037;-67
2023/07/09 00:55:37;;;;;;;13.13;6.53;;;;;;;19.48;100.00;101734.78;10327064;28;20041;-67
2023/07/09 01:00:46;;;;;;;10.93;5.90;;;;;;;19.50;100.00;101743.69;10415388;28;20037;-67
2023/07/09 01:05:51;;;;;;;10.48;6.00;;;;;;;19.46;100.00;101741.78;10448138;28;20144;-67
2023/07/09 01:10:51;;;;;;;11.02;6.28;;;;;;;19.45;100.00;101743.75;10415104;28;20041;-68
2023/07/09 01:15:52;;;;;;;7.40;5.43;;;;;;;19.48;100.00;101740.38;10461061;28;20051;-67
2023/07/09 01:21:02;;;;;;;11.65;6.55;;;;;;;19.44;100.00;101738.47;10443902;28;20075;-67
2023/07/09 01:26:03;;;;;;;11.85;6.28;;;;;;;19.42;100.00;101737.91;10444372;28;20037;-67
2023/07/09 01:31:04;;;;;;;8.10;6.03;;;;;;;19.35;100.00;101741.88;10412141;28;20037;-67
2023/07/09 01:36:06;;;;;;;9.18;7.00;;;;;;;19.26;100.00;101737.22;10401132;28;20041;-67
2023/07/09 01:41:07;;;;;;;10.68;6.43;;;;;;;19.16;100.00;101749.28;10399801;28;20095;-68
2023/07/09 01:46:08;;;;;;;9.90;5.70;;;;;;;19.02;100.00;101746.34;10400981;28;20547;-68
2023/07/09 01:51:12;;;;;;;10.85;6.57;;;;;;;18.89;100.00;101746.97;10419283;28;20084;-67
2023/07/09 01:56:13;;;;;;;9.77;6.72;;;;;;;18.77;100.00;101752.91;10402032;28;20112;-68
2023/07/09 02:01:15;;;;;;;10.75;6.53;;;;;;;18.68;100.00;101746.25;10425145;28;20049;-67
2023/07/09 02:06:15;;;;;;;13.70;7.22;;;;;;;18.60;100.00;101742.09;10430963;28;20101;-67
2023/07/09 02:11:16;;;;;;;9.80;6.70;;;;;;;18.54;100.00;101734.88;10400130;28;20044;-67
2023/07/09 02:16:16;;;;;;;9.35;6.70;;;;;;;18.49;100.00;101740.50;10417386;28;20033;-68
2023/07/09 02:21:17;;;;;;;12.77;7.60;;;;;;;18.41;100.00;101719.63;10432765;28;20059;-67
2023/07/09 02:26:17;;;;;;;10.52;6.60;;;;;;;18.48;100.00;101733.22;10442154;28;20028;-67
2023/07/09 02:31:19;;;;;;;11.18;6.93;;;;;;;18.45;100.00;101725.47;10437820;28;20090;-67
2023/07/09 02:36:19;;;;;;;16.15;8.10;;;;;;;18.40;100.00;101737.47;10408453;28;20410;-67
2023/07/09 02:41:20;;;;;;;11.43;7.25;;;;;;;18.37;100.00;101740.00;10415414;28;20033;-67
2023/07/09 02:46:20;;;;;;;15.50;7.75;;;;;;;18.31;100.00;101740.03;10392885;28;20053;-68
2023/07/09 02:51:21;;;;;;;13.43;7.72;;;;;;;18.24;100.00;101733.91;10417418;28;20510;-67
2023/07/09 02:56:21;;;;;;;11.68;7.82;;;;;;;18.11;100.00;101729.78;10416855;28;20026;-67
2023/07/09 03:01:24;;;;;;;10.77;6.82;;;;;;;18.10;100.00;101741.22;10383264;28;20061;-67
2023/07/09 03:06:25;;;;;;;10.52;7.05;;;;;;;18.04;100.00;101728.41;10448686;28;20037;-68
2023/07/09 03:11:27;;;;;;;11.07;7.93;;;;;;;17.92;100.00;101726.78;10437045;28;20029;-67
2023/07/09 03:16:28;;;;;;;12.68;8.32;;;;;;;17.88;100.00;101736.84;10421686;28;20056;-67
2023/07/09 03:21:28;;;;;;;12.23;8.25;;;;;;;17.81;100.00;101741.81;10457485;28;20037;-67
2023/07/09 03:26:29;;;;;;;9.48;7.63;;;;;;;17.77;100.00;101746.28;10423793;28;20115;-67
2023/07/09 03:31:30;;;;;;;12.05;8.32;;;;;;;17.66;100.00;101739.91;10457572;28;20088;-67
2023/07/09 03:36:30;;;;;;;12.57;7.45;;;;;;;17.68;100.00;101750.78;10437814;28;20029;-67
2023/07/09 03:41:31;;;;;;;10.63;8.00;;;;;;;17.68;100.00;101753.56;10385167;28;20064;-67
2023/07/09 03:46:31;;;;;;;12.63;8.27;;;;;;;17.68;100.00;101746.03;10404777;28;20485;-67
2023/07/09 03:51:32;;;;;;;12.15;8.02;;;;;;;17.68;100.00;101753.56;10455021;28;20037;-67
2023/07/09 03:56:32;;;;;;;11.02;8.32;;;;;;;17.66;100.00;101753.84;10405959;28;20033;-67
2023/07/09 04:01:33;;;;;;;11.85;8.88;;;;;;;17.72;100.00;101763.84;10455488;28;20037;-67
2023/07/09 04:06:33;;;;;;;13.93;7.53;;;;;;;17.77;100.00;101763.00;10421368;28;20042;-67
2023/07/09 04:11:34;;;;;;;12.30;8.20;;;;;;;17.86;100.00;101750.22;10418810;28;20048;-67
2023/07/09 04:16:34;;;;;;;12.35;7.63;;;;;;;17.84;100.00;101735.75;10412136;28;20064;-67
2023/07/09 04:21:35;;;;;;;11.32;7.13;;;;;;;18.04;100.00;101756.28;10412933;28;20042;-67
2023/07/09 04:26:38;;;;;;;12.57;7.53;;;;;;;18.10;100.00;101744.84;10414599;28;20022;-67
2023/07/09 04:31:39;;;;;;;12.10;7.93;;;;;;;18.21;100.00;101751.22;10414030;28;20037;-67
2023/07/09 04:36:40;;;;;;;11.90;7.88;;;;;;;18.32;100.00;101746.44;10396109;28;20467;-68
2023/07/09 04:41:40;;;;;;;9.50;6.50;;;;;;;18.44;100.00;101743.28;10394500;28;20046;-67
2023/07/09 04:46:41;;;;;;;10.75;7.18;;;;;;;18.53;100.00;101724.84;10447956;28;20037;-67
2023/07/09 04:51:41;;;;;;;10.23;6.57;;;;;;;18.79;100.00;101750.69;10437273;28;20033;-68
2023/07/09 04:56:45;;;;;;;9.00;6.95;;;;;;;18.94;100.00;101747.78;10437634;28;20033;-68
2023/07/09 05:01:46;;;;;;;13.45;6.63;;;;;;;19.10;100.00;101745.72;10435759;28;20060;-67
2023/07/09 05:06:46;;;;;;;10.70;6.07;;;;;;;19.32;100.00;101745.25;10406498;28;20543;-67
2023/07/09 05:11:47;;;;;;;9.05;5.72;;;;;;;19.46;100.00;101737.03;10396114;28;20040;-67
2023/07/09 05:16:47;;;;;;;9.80;6.47;;;;;;;19.67;100.00;101742.41;10401451;28;20042;-67
2023/07/09 05:21:48;;;;;;;10.60;6.20;;;;;;;19.83;100.00;101731.97;10419608;28;20485;-66
2023/07/09 05:26:48;;;;;;;9.75;5.65;;;;;;;20.02;100.00;101734.81;10402411;28;20033;-68
2023/07/09 05:31:49;;;;;;;9.30;6.15;;;;;;;20.30;100.00;101745.09;10404643;28;20059;-67
2023/07/09 05:36:49;;;;;;;10.38;5.80;;;;;;;20.75;100.00;101744.78;10425216;28;20049;-68
2023/07/09 05:41:50;;;;;;;9.35;5.40;;;;;;;21.27;100.00;101753.22;10402559;28;20053;-67
2023/07/09 05:46:50;;;;;;;7.55;5.78;;;;;;;21.72;100.00;101739.56;10407243;28;20045;-68
2023/07/09 05:51:51;;;;;;;14.13;7.18;;;;;;;22.02;100.00;101742.94;10385334;28;20033;-68
2023/07/09 05:56:52;;;;;;;8.45;5.38;;;;;;;22.24;100.00;101740.25;10426186;28;20040;-68
2023/07/09 06:01:53;;;;;;;8.30;5.32;;;;;;;22.44;100.00;101750.19;10398598;28;20128;-67
2023/07/09 06:06:53;;;;;;;11.85;6.00;;;;;;;22.82;100.00;101743.47;10431572;28;21456;-67
2023/07/09 06:11:54;;;;;;;7.72;6.25;;;;;;;23.30;100.00;101737.28;10423744;28;20037;-67
2023/07/09 06:16:54;;;;;;;9.57;5.97;;;;;;;23.52;100.00;101731.66;10413124;28;20092;-67
2023/07/09 06:21:55;;;;;;;9.60;6.18;;;;;;;23.65;100.00;101720.59;10388823;28;20030;-67
2023/07/09 06:26:56;;;;;;;10.50;5.97;;;;;;;23.62;100.00;101727.72;10417934;28;20041;-67
2023/07/09 06:31:56;;;;;;;6.32;5.22;;;;;;;23.59;100.00;101755.66;10416285;28;20495;-67
2023/07/09 06:36:57;;;;;;;8.35;5.57;;;;;;;23.46;100.00;101757.38;10429729;28;20041;-67
2023/07/09 06:41:57;;;;;;;9.48;4.90;;;;;;;23.47;100.00;101759.88;10440114;28;20426;-67
2023/07/09 06:46:58;;;;;;;9.27;5.60;;;;;;;23.49;100.00;101762.38;10459071;28;20096;-67
2023/07/09 06:51:58;;;;;;;8.45;5.22;;;;;;;23.59;100.00;101755.66;10426695;28;20045;-67
2023/07/09 06:56:59;;;;;;;7.80;5.53;;;;;;;23.92;100.00;101759.81;10421272;28;20048;-67
2023/07/09 07:01:59;;;;;;;10.00;5.85;;;;;;;24.30;100.00;101764.09;10441010;28;20033;-67
2023/07/09 07:07:00;;;;;;;7.22;5.30;;;;;;;24.62;100.00;101768.53;10438647;28;20025;-67
2023/07/09 07:12:00;;;;;;;8.48;5.40;;;;;;;24.90;100.00;101765.41;10420154;28;20044;-67
2023/07/09 07:17:00;;;;;;;9.65;6.00;;;;;;;25.31;100.00;101764.91;10456623;28;20056;-67
2023/07/09 07:22:01;;;;;;;10.05;6.15;;;;;;;25.72;100.00;101768.31;10439336;28;20410;-67
2023/07/09 07:27:01;;;;;;;9.55;6.03;;;;;;;26.04;100.00;101757.59;10455437;28;20489;-66
2023/07/09 07:32:02;;;;;;;12.27;6.72;;;;;;;26.21;100.00;101751.91;10452771;28;20048;-67
2023/07/09 07:37:03;;;;;;;8.63;6.28;;;;;;;26.33;100.00;101745.50;10451071;28;20041;-67
2023/07/09 07:42:04;;;;;;;12.13;6.15;;;;;;;26.51;100.00;101738.59;10453800;28;20041;-67
2023/07/09 07:47:05;;;;;;;8.50;5.78;;;;;;;26.96;100.00;101737.13;10457216;28;20049;-65
2023/07/09 07:52:06;;;;;;;9.38;6.53;;;;;;;27.35;100.00;101743.44;10457518;28;20045;-67
2023/07/09 07:57:08;;;;;;;8.90;6.13;;;;;;;27.64;100.00;101727.47;10456071;28;20037;-66
2023/07/09 08:02:13;;;;;;;10.35;5.85;;;;;;;27.76;100.00;101730.31;10453172;28;20047;-67
2023/07/09 08:07:13;;;;;;;8.55;6.38;;;;;;;27.87;100.00;101742.88;10416479;28;20079;-67
2023/07/09 08:12:14;;;;;;;11.07;6.32;;;;;;;27.87;100.00;101748.53;10401587;28;20087;-67
2023/07/09 08:17:15;;;;;;;9.23;5.53;;;;;;;27.81;100.00;101743.44;10426240;28;20041;-67
2023/07/09 08:22:15;;;;;;;8.20;6.30;;;;;;;27.85;100.00;101739.53;10410144;28;20083;-67
2023/07/09 08:27:16;;;;;;;9.32;5.78;;;;;;;28.16;100.00;101741.81;10433195;28;20053;-67
2023/07/09 08:32:16;;;;;;;11.00;5.95;;;;;;;28.64;100.00;101747.81;10427497;28;20040;-67
2023/07/09 08:37:17;;;;;;;10.27;5.40;;;;;;;28.92;100.00;101747.03;10453727;28;20025;-67
2023/07/09 08:42:24;;;;;;;9.13;6.07;;;;;;;29.07;100.00;101737.78;10453398;28;20512;-68
2023/07/09 08:47:46;;;;;;;7.07;5.30;;;;;;;29.34;100.00;101741.00;10440407;28;20112;-67
2023/07/09 08:52:48;;;;;;;8.73;5.63;;;;;;;29.76;100.00;101743.38;10448217;28;20041;-67
2023/07/09 08:58:00;;;;;;;8.35;5.57;;;;;;;30.05;98.35;101712.88;10462310;28;20103;-67
2023/07/09 09:03:29;;;;;;;9.80;5.28;;;;;;;30.13;98.98;101734.59;10462245;28;20120;-68
2023/07/09 09:08:36;;;;;;;9.20;5.40;;;;;;;30.07;92.64;101721.84;10443573;28;20033;-68
2023/07/09 09:13:36;;;;;;;7.60;5.30;;;;;;;30.03;95.23;101726.63;10444576;28;20075;-67
2023/07/09 09:18:43;;;;;;;6.88;4.70;;;;;;;30.08;90.79;101717.84;10424144;28;20045;-68
2023/07/09 09:23:54;;;;;;;12.25;6.78;;;;;;;30.30;92.56;101720.00;10443087;28;20029;-68
2023/07/09 09:28:55;;;;;;;8.07;5.25;;;;;;;30.65;95.34;101730.53;10460668;28;20104;-67
2023/07/09 09:33:56;;;;;;;7.50;5.60;;;;;;;30.87;95.31;101725.34;10460108;28;20048;-68
2023/07/09 09:39:01;;;;;;;9.88;5.10;;;;;;;31.14;94.04;101734.88;10426737;28;20108;-68
2023/07/09 09:44:02;;;;;;;9.20;5.28;;;;;;;31.33;92.95;101726.31;10442177;28;20052;-68
2023/07/09 09:49:05;;;;;;;8.32;5.15;;;;;;;31.56;91.89;101722.69;10460506;28;20025;-68
2023/07/09 09:54:11;;;;;;;11.50;5.25;;;;;;;31.91;88.76;101716.81;10442240;28;20036;-68
2023/07/09 09:59:30;;;;;;;11.02;5.78;;;;;;;32.07;87.08;101718.72;10408435;28;20058;-67
2023/07/09 10:04:30;;;;;;;7.47;5.03;;;;;;;32.27;86.69;101723.13;10460192;28;20044;-67
2023/07/09 10:09:53;;;;;;;7.97;5.15;;;;;;;32.41;87.23;101727.38;10457838;28;20043;-68
2023/07/09 10:14:59;;;;;;;9.88;4.40;;;;;;;32.80;88.56;101715.72;10419323;28;20077;-68
2023/07/09 10:20:17;;;;;;;9.23;4.53;;;;;;;33.07;85.45;101713.63;10383226;28;20068;-68
2023/07/09 10:25:44;;;;;;;9.82;5.10;;;;;;;33.26;84.57;101722.03;10403467;28;20040;-68
2023/07/09 10:31:06;;;;;;;7.22;4.05;;;;;;;33.54;82.99;101715.78;10397897;28;20552;-67
2023/07/09 10:36:06;;;;;;;8.32;4.28;;;;;;;33.48;79.29;101705.94;10383337;28;20042;-68
2023/07/09 10:41:09;;;;;;;9.50;4.93;;;;;;;33.10;78.62;101662.34;10418141;28;20105;-68
2023/07/09 10:46:18;;;;;;;7.28;4.65;;;;;;;33.57;77.91;101703.59;10401995;28;20287;-69
2023/07/09 10:51:37;;;;;;;6.80;4.60;;;;;;;33.68;79.89;101703.72;10425154;28;20033;-68
2023/07/09 10:56:38;;;;;;;7.63;4.35;;;;;;;33.69;76.69;101704.53;10442040;28;20091;-69
2023/07/09 11:01:43;;;;;;;6.68;4.13;;;;;;;33.64;75.83;101697.16;10399180;28;20111;-69
2023/07/09 11:06:46;;;;;;;9.10;4.57;;;;;;;33.99;75.23;101683.59;10399665;28;20040;-71
2023/07/09 11:11:49;;;;;;;6.57;3.53;;;;;;;34.04;72.85;101686.88;10415077;28;20058;-73
2023/07/09 11:16:49;;;;;;;7.30;4.40;;;;;;;34.07;75.69;101691.00;10415777;28;20109;-69
2023/07/09 11:22:17;;;;;;;8.35;4.18;;;;;;;34.34;76.44;101683.84;10382229;28;20088;-71
2023/07/09 11:27:21;;;;;;;5.10;3.80;;;;;;;34.51;72.44;101664.31;10412340;28;20033;-71
2023/07/09 11:32:22;;;;;;;4.57;3.63;;;;;;;34.62;73.50;101668.03;10416778;28;20063;-71
2023/07/09 11:37:25;;;;;;;6.65;4.28;;;;;;;34.65;73.73;101657.88;10438740;28;20041;-71
2023/07/09 11:42:29;;;;;;;5.40;3.75;;;;;;;34.80;70.12;101630.97;10454086;28;20036;-70
2023/07/09 11:47:38;;;;;;;9.07;5.20;;;;;;;35.08;73.72;101650.25;10416767;28;20037;-71
2023/07/09 11:52:51;;;;;;;6.97;3.83;;;;;;;35.52;71.18;101642.56;10396643;28;20072;-71
2023/07/09 11:57:59;;;;;;;5.72;3.65;;;;;;;35.71;69.01;101638.50;10398144;28;20041;-71
2023/07/09 12:03:00;;;;;;;5.70;3.85;;;;;;;35.89;66.95;101627.03;10397793;28;20045;-71
2023/07/09 12:08:00;;;;;;;6.05;4.18;;;;;;;36.26;67.17;101629.44;10397160;28;20050;-72
2023/07/09 12:13:03;;;;;;;6.85;4.00;;;;;;;36.55;64.99;101615.78;10435212;28;20121;-71
2023/07/09 12:18:12;;;;;;;5.40;4.45;;;;;;;36.96;64.24;101611.47;10417146;28;20052;-73
2023/07/09 12:23:25;;;;;;;6.18;4.20;;;;;;;37.62;61.72;101599.13;10421368;28;20071;-74
2023/07/09 12:28:26;;;;;;;6.07;4.35;;;;;;;37.58;63.00;101598.34;10403275;28;20037;-72
2023/07/09 12:33:28;;;;;;;6.10;4.03;;;;;;;37.82;60.31;101599.34;10396036;28;20052;-73
2023/07/09 12:38:30;;;;;;;6.97;4.65;;;;;;;38.34;57.91;101592.63;10420879;28;20052;-72
2023/07/09 12:43:31;;;;;;;6.30;3.95;;;;;;;38.51;56.90;101585.84;10436578;28;20105;-72
2023/07/09 12:48:31;;;;;;;6.18;4.13;;;;;;;38.17;58.42;101577.22;10411464;28;20045;-72
2023/07/09 12:53:32;;;;;;;6.93;4.07;;;;;;;38.29;58.31;101602.53;10403502;28;20033;-72
2023/07/09 12:58:36;;;;;;;4.30;3.47;;;;;;;38.83;56.54;101589.53;10453314;28;20037;-71
2023/07/09 13:03:36;;;;;;;8.20;4.77;;;;;;;38.64;57.28;101609.09;10415822;28;20117;-71
2023/07/09 13:08:41;;;;;;;6.07;3.97;;;;;;;38.63;55.47;101569.25;10446338;28;20493;-70
2023/07/09 13:13:52;;;;;;;7.93;4.18;;;;;;;38.80;55.67;101578.84;10417655;28;20044;-71
2023/07/09 13:18:53;;;;;;;5.60;4.10;;;;;;;38.77;53.26;101574.00;10405302;28;20044;-71
2023/07/09 13:23:54;;;;;;;4.10;3.50;;;;;;;39.11;53.67;101583.34;10396228;28;20045;-71
2023/07/09 13:28:54;;;;;;;4.97;3.97;;;;;;;38.86;52.94;101583.69;10386410;28;20045;-71
2023/07/09 13:33:57;;;;;;;5.22;3.47;;;;;;;38.21;53.08;101582.94;10456666;28;20049;-71
2023/07/09 13:38:57;;;;;;;4.53;3.35;;;;;;;37.15;54.55;101587.22;10444811;28;20090;-71
2023/07/09 13:43:58;;;;;;;8.93;3.75;;;;;;;35.97;57.66;101591.41;10462938;28;20059;-73
2023/07/09 13:48:59;;;;;;;5.05;3.25;;;;;;;35.10;59.87;101590.59;10418133;28;20069;-71
2023/07/09 13:54:02;;;;;;;7.28;3.35;;;;;;;34.57;60.70;101588.38;10420826;28;20053;-75
2023/07/09 13:59:02;;;;;;;5.43;3.67;;;;;;;34.24;60.07;101569.47;10438341;28;20037;-79
2023/07/09 14:04:03;;;;;;;5.75;3.17;;;;;;;33.92;60.54;101559.47;10428289;28;20478;-77
2023/07/09 14:09:03;;;;;;;6.28;3.00;;;;;;;33.68;64.75;101557.28;10442292;28;20109;-73
2023/07/09 14:14:15;;;;;;;5.50;3.80;;;;;;;33.32;66.76;101532.13;10435707;28;20160;-76
2023/07/09 14:19:18;;;;;;;4.47;2.97;;;;;;;33.11;69.03;101532.75;10422007;28;20041;-75
2023/07/09 14:24:23;;;;;;;7.10;3.22;;;;;;;32.86;67.57;101529.63;10425005;28;20036;-71
2023/07/09 14:29:23;;;;;;;8.20;4.55;;;;;;;33.21;67.43;101522.66;10442135;28;20500;-81
2023/07/09 14:34:28;;;;;;;5.63;3.10;;;;;;;33.91;66.15;101520.69;10397014;28;20046;-81
2023/07/09 14:39:29;;;;;;;9.07;3.23;;;;;;;34.22;66.43;101529.84;10417007;28;20061;-76
2023/07/09 14:44:31;;;;;;;6.88;3.03;;;;;;;33.91;68.08;101522.75;10438550;28;20041;-78
2023/07/09 14:49:31;;;;;;;6.13;3.33;;;;;;;33.40;67.24;101527.28;10435708;28;20044;-78
2023/07/09 14:54:32;;;;;;;5.57;3.50;;;;;;;33.01;73.51;101566.84;10456646;28;20033;-82
2023/07/09 14:59:32;;;;;;;6.32;3.38;;;;;;;32.43;76.32;101519.78;10457778;28;20041;-83
2023/07/09 15:04:33;;;;;;;4.82;3.10;;;;;;;31.72;76.36;101503.38;10438019;28;20033;-76
2023/07/09 15:09:36;;;;;;;7.35;3.92;;;;;;;31.15;81.41;101504.13;10422778;28;20049;-82
2023/07/09 15:14:37;;;;;;;8.00;5.00;;;;;;;30.74;83.73;101515.16;10422128;28;20063;-83
2023/07/09 15:19:37;;;;;;;9.60;5.50;;;;;;;30.49;87.46;101534.56;10414112;28;20057;-81
2023/07/09 15:24:38;;;;;;;7.25;5.15;;;;;;;30.18;92.91;101507.13;10413213;28;20056;-73
2023/07/09 15:29:38;;;;;;;7.97;5.28;;;;;;;30.04;97.83;101529.53;10413660;28;20045;-68
2023/07/09 15:34:39;;;;;;;7.82;5.43;;;;;;;29.88;100.00;101533.25;10408771;28;20041;-84
2023/07/09 15:39:39;;;;;;;7.90;5.70;;;;;;;29.67;100.00;101536.38;10412857;28;20049;-74
2023/07/09 15:44:40;;;;;;;8.20;4.97;;;;;;;29.43;100.00;101540.25;10397138;28;20053;-74
2023/07/09 15:49:41;;;;;;;6.35;4.70;;;;;;;29.21;100.00;101544.59;10411755;28;20061;-72
2023/07/09 15:54:41;;;;;;;8.50;5.55;;;;;;;29.09;100.00;101559.63;10413124;28;20038;-74
2023/07/09 15:59:42;;;;;;;13.25;5.25;;;;;;;28.07;98.12;101598.75;10415186;28;20037;-73
2023/07/09 16:04:43;;;;;;;13.18;5.95;;;;;;;25.62;92.35;101647.44;10377787;28;20045;-72
2023/07/09 16:09:44;;;;;;;16.63;6.55;;;;;;;24.56;94.73;101685.38;10408547;28;20072;-72
2023/07/09 16:14:45;;;;;;;7.50;4.40;;;;;;;24.12;93.55;101664.75;10415425;28;20087;-70
2023/07/09 16:19:45;;;;;;;14.73;7.53;;;;;;;23.37;100.00;101701.13;10449553;28;20037;-72
2023/07/09 16:24:46;;;;;;;7.30;4.10;;;;;;;22.75;100.00;101697.00;10404445;28;20429;-71
2023/07/09 16:29:46;;;;;;;7.30;3.80;;;;;;;22.63;100.00;101665.84;10454654;28;20052;-74
2023/07/09 16:34:46;;;;;;;7.47;3.35;;;;;;;22.50;100.00;101677.97;10456170;28;20033;-71
2023/07/09 16:39:47;;;;;;;9.20;3.50;;;;;;;22.41;100.00;101640.56;10452818;28;20060;-70
2023/07/09 16:44:47;;;;;;;10.10;4.13;;;;;;;22.01;100.00;101657.13;10419465;28;22798;-74
2023/07/09 16:49:48;;;;;;;13.68;5.53;;;;;;;21.61;100.00;101665.25;10405080;28;20490;-74
2023/07/09 16:54:48;;;;;;;8.70;4.95;;;;;;;21.27;100.00;101678.44;10410193;28;20489;-73
2023/07/09 16:59:49;;;;;;;8.63;5.18;;;;;;;21.01;100.00;101678.06;10435020;28;20060;-71
2023/07/09 17:04:50;;;;;;;12.85;7.50;;;;;;;20.51;100.00;101697.28;10420879;28;20041;-74
2023/07/09 17:09:54;;;;;;;14.73;6.95;;;;;;;19.86;100.00;101659.53;10441644;28;20037;-75
2023/07/09 17:14:55;;;;;;;22.80;7.97;;;;;;;19.49;100.00;101742.03;10445030;28;20053;-76
2023/07/09 17:19:55;;;;;;;28.38;11.57;;;;;;;19.29;100.00;102035.38;10390650;28;20049;-68
2023/07/09 17:24:56;;;;;;;31.98;11.73;;;;;;;18.72;100.00;101999.22;10459942;28;20033;-72
2023/07/09 17:29:56;;;;;;;13.98;5.72;;;;;;;18.49;100.00;101977.50;10398458;28;20038;-70
2023/07/09 17:34:57;;;;;;;14.48;7.75;;;;;;;18.39;100.00;102010.97;10401978;28;20053;-69
2023/07/09 17:39:57;;;;;;;15.05;6.47;;;;;;;18.44;100.00;102010.97;10418692;28;20042;-70
2023/07/09 17:44:58;;;;;;;12.13;5.97;;;;;;;18.15;100.00;101941.88;10411019;28;20167;-72
2023/07/09 17:49:58;;;;;;;16.15;7.93;;;;;;;18.55;100.00;102030.19;10430141;28;20033;-74
2023/07/09 17:54:59;;;;;;;13.30;7.45;;;;;;;18.73;100.00;102053.91;10450861;28;20132;-75
2023/07/09 17:59:59;;;;;;;13.65;7.30;;;;;;;18.97;100.00;102047.75;10424440;28;20534;-73
2023/07/09 18:05:00;;;;;;;116.20;15.90;;;;;;;19.00;100.00;102024.88;10423608;28;20033;-72
2023/07/09 18:10:00;;;;;;;38.30;10.25;;;;;;;19.02;100.00;102000.31;10431660;28;20061;-73
2023/07/09 18:15:03;;;;;;;70.88;14.35;;;;;;;19.05;100.00;101980.19;10439695;28;20113;-73
2023/07/09 18:20:04;;;;;;;16.83;8.45;;;;;;;19.02;100.00;101943.66;10412975;28;20100;-74
2023/07/09 18:25:05;;;;;;;17.13;8.05;;;;;;;19.00;100.00;101960.69;10355143;28;20080;-74
2023/07/09 18:30:13;;;;;;;17.50;8.40;;;;;;;18.90;100.00;101955.97;10387723;28;20044;-73
2023/07/09 18:35:23;;;;;;;11.95;7.75;;;;;;;18.87;100.00;101958.47;10390728;28;20061;-74
2023/07/09 18:40:28;;;;;;;13.23;7.57;;;;;;;19.01;100.00;101965.13;10383480;28;20441;-73
2023/07/09 18:45:28;;;;;;;14.30;8.52;;;;;;;19.00;100.00;101951.47;10416253;28;20037;-74
2023/07/09 18:50:30;;;;;;;14.25;8.40;;;;;;;19.01;100.00;101944.75;10400727;28;20037;-73
2023/07/09 18:55:30;;;;;;;17.30;9.15;;;;;;;18.92;100.00;101942.56;10399686;28;20041;-72
2023/07/09 19:00:31;;;;;;;16.95;9.40;;;;;;;18.50;100.00;101890.78;10414322;28;20045;-72
2023/07/09 19:05:31;;;;;;;17.98;10.05;;;;;;;18.75;100.00;101939.25;10416253;28;20034;-73
2023/07/09 19:10:32;;;;;;;18.60;9.35;;;;;;;18.87;100.00;101925.84;10382429;28;20611;-73
2023/07/09 19:15:34;;;;;;;18.48;10.10;;;;;;;18.90;100.00;101896.53;10417995;28;20088;-74
2023/07/09 19:20:35;;;;;;;13.07;9.00;;;;;;;18.84;100.00;101897.69;10400029;28;20052;-73
2023/07/09 19:25:36;;;;;;;14.05;8.60;;;;;;;18.84;100.00;101881.75;10413621;28;20048;-72
2023/07/09 19:30:36;;;;;;;16.10;9.02;;;;;;;18.79;100.00;101856.69;10402358;28;20037;-71
2023/07/09 19:35:38;;;;;;;16.73;9.85;;;;;;;18.74;100.00;101851.09;10415366;28;20120;-72
2023/07/09 19:40:39;;;;;;;16.75;9.60;;;;;;;18.67;100.00;101837.47;10414559;28;20444;-72
2023/07/09 19:45:45;;;;;;;20.45;10.10;;;;;;;18.70;100.00;101842.44;10375394;28;20037;-73
2023/07/09 19:50:47;;;;;;;23.58;10.65;;;;;;;18.68;100.00;101838.28;10414593;28;20092;-73
2023/07/09 19:55:47;;;;;;;20.88;11.60;;;;;;;18.69;100.00;101840.78;10415911;28;20040;-74
2023/07/09 20:00:48;;;;;;;18.77;10.25;;;;;;;18.58;100.00;101836.38;10395297;28;20044;-72
2023/07/09 20:05:50;;;;;;;24.83;11.85;;;;;;;18.58;100.00;101833.56;10412876;28;20053;-73
2023/07/09 20:10:52;;;;;;;24.98;12.25;;;;;;;18.47;100.00;101820.81;10413770;28;20061;-74
2023/07/09 20:15:52;;;;;;;22.38;11.40;;;;;;;18.52;100.00;101843.06;10414859;28;20052;-73
2023/07/09 20:20:59;;;;;;;24.52;12.68;;;;;;;18.52;100.00;101845.88;10406389;28;20293;-74
2023/07/09 20:26:01;;;;;;;25.40;14.05;;;;;;;18.51;100.00;101845.03;10434848;28;20048;-73
2023/07/09 20:31:03;;;;;;;25.73;13.50;;;;;;;18.49;100.00;101846.44;10455484;28;20033;-73
2023/07/09 20:36:04;;;;;;;33.05;13.85;;;;;;;18.50;100.00;101865.69;10454306;28;20123;-74
2023/07/09 20:41:04;;;;;;;22.42;13.85;;;;;;;18.44;100.00;101882.69;10454542;28;20033;-74
2023/07/09 20:46:05;;;;;;;22.48;12.95;;;;;;;18.48;100.00;101900.53;10434110;28;20033;-73
2023/07/09 20:51:05;;;;;;;22.92;13.65;;;;;;;18.44;100.00;101905.00;10458445;28;20056;-73
2023/07/09 20:56:11;;;;;;;25.88;13.07;;;;;;;18.40;100.00;101895.53;10460750;28;20033;-73
2023/07/09 21:01:12;;;;;;;23.48;13.63;;;;;;;18.29;100.00;101897.50;10441091;28;20044;-74
2023/07/09 21:06:13;;;;;;;21.63;11.80;;;;;;;18.30;100.00;101911.19;10410671;28;20568;-73
2023/07/09 21:11:14;;;;;;;25.73;13.13;;;;;;;18.37;100.00;101907.28;10383492;28;20126;-73
2023/07/09 21:16:37;;;;;;;28.70;13.55;;;;;;;18.41;100.00;101923.13;10414708;28;20074;-71
2023/07/09 21:21:38;;;;;;;27.63;12.75;;;;;;;18.38;100.00;101929.28;10441206;28;20461;-74
2023/07/09 21:26:38;;;;;;;25.83;13.10;;;;;;;18.45;100.00;101926.22;10428484;28;20056;-73
2023/07/09 21:31:38;;;;;;;25.73;14.18;;;;;;;18.47;100.00;101926.75;10447248;28;20036;-73
2023/07/09 21:36:39;;;;;;;27.08;14.40;;;;;;;18.54;100.00;101921.72;10416641;28;20056;-73
2023/07/09 21:41:40;;;;;;;25.83;14.52;;;;;;;18.56;100.00;101919.47;10428207;28;20559;-73
2023/07/09 21:46:41;;;;;;;29.13;16.13;;;;;;;18.67;100.00;101884.88;10443662;28;20479;-73
2023/07/09 21:51:42;;;;;;;33.88;17.75;;;;;;;18.70;100.00;101897.41;10384009;28;20045;-75
2023/07/09 21:56:43;;;;;;;33.92;17.05;;;;;;;18.62;100.00;101901.63;10393240;28;20092;-74
2023/07/09 22:01:44;;;;;;;35.35;17.35;;;;;;;18.59;100.00;101896.63;10438199;28;20110;-74
2023/07/09 22:06:45;;;;;;;32.58;17.17;;;;;;;18.51;100.00;101899.97;10425003;28;20029;-74
2023/07/09 22:11:48;;;;;;;28.65;17.95;;;;;;;18.46;100.00;101902.78;10414580;28;20045;-74
2023/07/09 22:16:49;;;;;;;36.92;20.40;;;;;;;18.48;100.00;101920.06;10385039;28;20037;-73
2023/07/09 22:21:50;;;;;;;35.28;19.08;;;;;;;18.33;100.00;101907.84;10384967;28;20382;-74
2023/07/09 22:26:51;;;;;;;30.08;18.42;;;;;;;18.42;100.00;101916.47;10373602;28;20042;-75
2023/07/09 22:31:51;;;;;;;34.15;19.25;;;;;;;18.31;100.00;101879.41;10438270;28;20033;-74
2023/07/09 22:36:52;;;;;;;32.45;19.92;;;;;;;18.43;100.00;101920.09;10425769;28;20033;-76
2023/07/09 22:41:52;;;;;;;37.90;18.58;;;;;;;18.44;100.00;101921.72;10419095;28;20073;-74
2023/07/09 22:46:53;;;;;;;32.83;18.08;;;;;;;18.42;100.00;101893.31;10433942;28;20045;-74
2023/07/09 22:51:53;;;;;;;37.75;19.48;;;;;;;18.39;100.00;101889.13;10418055;28;20033;-74